Terminal Aerodrome Forecast
Issued by NWS Des Moines, IA

Home | Current Version | Previous Version | Text Only | Print | Product List | Glossary On
Versions: 1 2 3 4 5 6 7 8 9 10 11 12 13 14 15 16 17 18 19 20 21 22
000
FTUS43 KDMX 150215 AAA
TAFALO
TAF AMD
KALO 150215Z 1502/1524 30006KT P6SM OVC090
     FM150400 29007KT P6SM -SHSN BKN018 OVC035
     FM151500 25010KT P6SM SCT040
     FM151800 26010KT P6SM OVC027
     FM151900 25010KT P6SM BKN028
     FM152300 23006KT P6SM BKN100=

USA.gov is the U.S. government's official web portal to all federal, state and local government web resources and services.